Flight Track Log - Related Links

Times and Time Zones

All times are in EDT time to prevent confusion due to time zone crossing. See the RPA3392 flight status page for this flight to view local times or setup timezone preferences in your user account.

Time Position Orientation Groundspeed Altitude Reporting Facility
EDT Latitude Longitude Course Direction KTS MPH feet Rate Location/Type
Fri 10:08:29 PM 38.8753 -77.0556 90° East 153 176 1,400  Level Washington Center
Fri 10:09:30 PM 38.9144 -77.1017 318° Northwest 211 243 3,300 2,067 Climbing Washington Center
Fri 10:10:00 PM 38.9782 -76.6602 57° Northeast  Level FlightAware Approximate
Fri 10:10:28 PM 38.9556 -77.1453 320° Northwest 231 266 5,500  Level Washington Center
Fri 10:11:00 PM 39.0271 -76.5355 67° East  Level FlightAware Approximate
Fri 10:11:28 PM 39.0261 -77.1547 354° North 209 241 9,100  Level Washington Center
Fri 10:12:00 PM 39.0764 -76.4106 61° Northeast  Level FlightAware Approximate
Fri 10:12:28 PM 39.0422 -77.0428 79° East 190 219 10,800  Level Washington Center
Fri 10:13:00 PM 39.1167 -76.2837 90° East  Level FlightAware Approximate
Fri 10:13:28 PM 39.0603 -76.9147 80° East 292 336 12,700  Level Washington Center
Fri 10:14:30 PM 39.0764 -76.7789 81° East 339 390 14,800 1,869 Climbing Washington Center
Fri 10:15:30 PM 39.0944 -76.6372 81° East 371 427 16,500 1,983 Climbing Washington Center
Fri 10:16:28 PM 39.1122 -76.4958 81° East 390 449 18,700 1,271 Climbing Washington Center
Fri 10:17:28 PM 39.1319 -76.3461 80° East 402 463 19,000 150 Climbing Washington Center
Fri 10:18:28 PM 39.1494 -76.2044 81° East 408 470 19,000  Level Washington Center
Fri 10:19:31 PM 39.1731 -76.0575 78° East 408 470 19,000 645 Level Washington Center
Fri 10:20:29 PM 39.1922 -75.9075 81° East 413 475 20,300 1,525 Climbing Washington Center
Fri 10:21:29 PM 39.2675 -75.7847 52° Northeast 408 470 22,000 1,339 Climbing Washington Center
Fri 10:22:30 PM 39.3550 -75.6747 44° Northeast 420 483 23,000 555 Climbing Washington Center
Fri 10:23:28 PM 39.4406 -75.5594 46° Northeast 425 489 23,100 661 Climbing Washington Center
Fri 10:24:28 PM 39.5300 -75.4436 45° Northeast 440 506 24,300 949 Climbing Washington Center
Fri 10:26:06 PM 39.6783 -75.2511 45° Northeast 464 534 25,600 646 Climbing New York Center
Fri 10:27:06 PM 39.7667 -75.1189 49° Northeast 471 542 26,000 347 Climbing New York Center
Fri 10:28:07 PM 39.8547 -74.9892 48° Northeast 476 548 26,300 605 Climbing New York Center
Fri 10:29:05 PM 39.9489 -74.8622 46° Northeast 476 548 27,200 915 Climbing New York Center
Fri 10:30:05 PM 40.0367 -74.7344 48° Northeast 481 554 28,100 744 Climbing New York Center
Fri 10:31:06 PM 40.1258 -74.6203 44° Northeast 486 559 28,700 446 Climbing New York Center
Fri 10:32:06 PM 40.2319 -74.4983 41° Northeast 498 573 29,000 149 Climbing New York Center
Fri 10:33:07 PM 40.3378 -74.3789 41° Northeast 498 573 29,000  Level New York Center
Fri 10:34:07 PM 40.4414 -74.2617 41° Northeast 498 573 29,000  Level New York Center
Fri 10:35:06 PM 40.5489 -74.1386 41° Northeast 498 573 29,000 -1,160 Level New York Center
Fri 10:36:06 PM 40.6567 -74.0128 42° Northeast 498 573 26,700 -1,435 Descending New York Center
Fri 10:38:35 PM 40.9197 -73.7092 41° Northeast 480 552 24,000 -976 Descending Boston Center
Fri 10:39:35 PM 41.0372 -73.6508 21° North 458 527 23,300 -550 Descending Boston Center
Fri 10:40:35 PM 41.1642 -73.6614 356° North 430 495 22,900 -650 Descending Boston Center
Fri 10:41:35 PM 41.2872 -73.6639 359° North 435 501 22,000 -1,150 Descending Boston Center
Fri 10:42:35 PM 41.4083 -73.6442 North 435 501 20,600 -1,300 Descending Boston Center
Fri 10:43:35 PM 41.5231 -73.6242 North 430 495 19,400 -1,250 Descending Boston Center
Fri 10:44:35 PM 41.6233 -73.6064 North 407 468 18,100 -1,500 Descending Boston Center
Fri 10:45:35 PM 41.7444 -73.5864 North 407 468 16,400 -1,600 Descending Boston Center
Fri 10:46:35 PM 41.8467 -73.5714 North 407 468 14,900 -1,553 Descending Boston Center
Fri 10:47:00 PM 41.9031 -73.5614 North 414 476 14,200 -1,800 Descending Boston Center
Fri 10:47:35 PM 41.9678 -73.5514 North 407 468 13,100 -1,648 Descending Boston Center
Fri 10:48:31 PM 42.0633 -73.5614 356° North 366 421 11,700 -1,077 Descending Boston Center
Fri 10:49:32 PM 42.1569 -73.5939 346° North 337 388 11,000 -744 Descending Boston Center
Fri 10:50:32 PM 42.2400 -73.6264 344° North 310 357 10,200 -1,140 Descending Boston Center
Fri 10:51:33 PM 42.3167 -73.6728 336° Northwest 289 333 8,700 -1,537 Descending Boston Center
Fri 10:52:33 PM 42.3869 -73.7164 335° Northwest 283 326 7,100 -1,636 Descending Boston Center
Fri 10:53:34 PM 42.4636 -73.7628 336° Northwest 277 319 5,400 -1,525 Descending Boston Center
Fri 10:54:35 PM 42.5319 -73.7953 341° North 275 316 4,000 -1,339 Descending Boston Center
Fri 10:55:35 PM 42.6006 -73.8025 356° North 247 284 2,700 -1,300 Descending Boston Center
Fri 10:55:35 PM 42.6006 -73.8025 356° North 260 299 2,700  Level Boston Center

Login

Don't have an account? Register now (free) for customized features, flight alerts, and more!